Airfield :
LOGIN :

Register | Disclaimer

   EN    FR    IT 

 










Legend :    VFR   Marginal VFR   IFR   Intensive IFR   Very Intensive IFR
Visi :
Ceiling :
>= 8 km
>= 3000ft
5 to 8 km
1000 to 3000 ft
1500m to 5 km
500 to 1000 ft
800 to 1500m
200 to 500 ft
< 800m
< 200 ft
Symbols :   Thunderstorms  Fog  Heavy snow  Heavy precipitations  Wind > 20 kt
SIGMETs :     Misc.  Thunderstorms  Icing  Turbulence  Mountain Waves  Volcanic Ashes






- Airport Elevation : -15 ft
- IATA code : RTM


EHRD - Rotterdam Zestienhoven

CURRENT METAR :
  • 241125Z AUTO 20015KT 160V220 9999 BKN016 OVC019 06/03 Q0997 TEMPO 6000 -SHRA BKN016 SCT018CB

EXPIRED METARs :
  • 241055Z AUTO 19012KT 160V230 9999 BKN015/// OVC018/// 05/03 Q0997 TEMPO 6000 -SHRA BKN016 SCT018CB
  • 241025Z AUTO 20011KT 160V240 9999 BKN016/// OVC020/// 05/03 Q0997 TEMPO 6000 -SHRA BKN012 SCT018CB
  • 240955Z AUTO 20011KT 170V240 9999 SCT015/// BKN019/// OVC025/// 05/03 Q0996 NOSIG
  • 240925Z AUTO 19011KT 160V230 9999 FEW011/// SCT018/// OVC023/// 05/03 Q0996 NOSIG
  • 240855Z AUTO 19011KT 160V220 9999 FEW011/// OVC022/// 05/03 Q0996 NOSIG
  • 240825Z AUTO 19011KT 160V220 9999 FEW010 SCT013 BKN016 05/03 Q0996 NOSIG
  • 240755Z AUTO 19008KT 150V220 9999 FEW010 BKN015 BKN018 05/03 Q0995 NOSIG
  • 240725Z AUTO 19008KT 140V250 9999 FEW010/// SCT014/// BKN017/// 05/03 Q0995 NOSIG
  • 240655Z AUTO 19007KT 160V220 9999 FEW009 SCT014 BKN021 05/03 Q0995 NOSIG

TAF TAF EHRD
Valid from the 24 at 12:00 until the 25 at 18:00 UTC


241111Z 2412/2518 21012KT 9999 SCT023
TEMPO 2412/2416 6000 SHRA BKN016 SCT018CB
BECMG 2416/2419 16007KT
TEMPO 2420/2510 5000 RA SHRA BKN010 SCT015CB
BECMG 2501/2504 SCT005 BKN008
BECMG 2510/2513 21011KT SCT025



MET'MAP, your aeronautical weather chart ! - Copyright ORBIFLY December 2007 - Disclaimer

ORBIFLY MET'MAP TEAM :

Programming & Development : Alexandra Zaïnal
Original concept : Baudouin d'Aumeries
Technical & hardware support : Manuel Goepfert
Assistance : Marc-Olivier Méhu




SOURCES & CREDITS :

   NOAA